Terminal Aerodrome Forecast
Issued by NWS

Home | Current Version | Previous Version | Text Only | Print | Product List | Glossary On
Versions: 1 2 3 4 5 6 7 8 9 10 11 12 13 14 15 16 17 18 19 20 21 22
000
FTUS43 KDLH 240500
TAFHYR
TAF
KHYR 240534Z 2406/2506 VRB04KT 5SM -RA BR OVC006
      TEMPO 2406/2410 1 1/2SM -SNRA BR BKN003
     FM241000 32012KT 3SM -SN BR OVC005
     FM241600 32012G25KT 3SM -SN BLSN OVC014
     FM242000 32014G28KT 3SM -SN BLSN OVC018
     FM250300 32012KT 3SM -SN OVC020=

USA.gov is the U.S. government's official web portal to all federal, state and local government web resources and services.